sensor_id;sensor_type;location;lat;lon;timestamp;temperature;humidity
7646;DHT22;3864;48.180;14.178;2023-11-22T00:02:16;6.30;99.90
7646;DHT22;3864;48.180;14.178;2023-11-22T00:04:43;6.30;99.90
7646;DHT22;3864;48.180;14.178;2023-11-22T00:07:10;6.30;99.90
7646;DHT22;3864;48.180;14.178;2023-11-22T00:09:37;6.30;99.90
7646;DHT22;3864;48.180;14.178;2023-11-22T00:12:07;6.20;99.90
7646;DHT22;3864;48.180;14.178;2023-11-22T00:14:34;6.20;99.90
7646;DHT22;3864;48.180;14.178;2023-11-22T00:17:02;6.10;99.90
7646;DHT22;3864;48.180;14.178;2023-11-22T00:19:29;6.10;99.90
7646;DHT22;3864;48.180;14.178;2023-11-22T00:21:58;6.10;99.90
7646;DHT22;3864;48.180;14.178;2023-11-22T00:24:25;6.20;99.90
7646;DHT22;3864;48.180;14.178;2023-11-22T00:26:52;6.10;99.90
7646;DHT22;3864;48.180;14.178;2023-11-22T00:29:20;6.10;99.90
7646;DHT22;3864;48.180;14.178;2023-11-22T00:31:47;6.10;99.90
7646;DHT22;3864;48.180;14.178;2023-11-22T00:34:14;6.00;99.90
7646;DHT22;3864;48.180;14.178;2023-11-22T00:36:41;6.00;99.90
7646;DHT22;3864;48.180;14.178;2023-11-22T00:39:08;6.10;99.90
7646;DHT22;3864;48.180;14.178;2023-11-22T00:41:38;6.10;99.90
7646;DHT22;3864;48.180;14.178;2023-11-22T00:44:05;6.10;99.90
7646;DHT22;3864;48.180;14.178;2023-11-22T00:46:34;6.10;99.90
7646;DHT22;3864;48.180;14.178;2023-11-22T00:49:03;6.10;99.90
7646;DHT22;3864;48.180;14.178;2023-11-22T00:51:30;6.10;99.90
7646;DHT22;3864;48.180;14.178;2023-11-22T00:53:58;6.10;99.90
7646;DHT22;3864;48.180;14.178;2023-11-22T00:56:25;6.20;99.90
7646;DHT22;3864;48.180;14.178;2023-11-22T00:58:52;6.10;99.90
7646;DHT22;3864;48.180;14.178;2023-11-22T01:01:21;6.20;99.90
7646;DHT22;3864;48.180;14.178;2023-11-22T01:03:50;6.20;99.90
7646;DHT22;3864;48.180;14.178;2023-11-22T01:06:17;6.10;99.90
7646;DHT22;3864;48.180;14.178;2023-11-22T01:08:44;6.10;99.90
7646;DHT22;3864;48.180;14.178;2023-11-22T01:11:13;6.10;99.90
7646;DHT22;3864;48.180;14.178;2023-11-22T01:13:41;6.10;99.90
7646;DHT22;3864;48.180;14.178;2023-11-22T01:16:09;6.10;99.90
7646;DHT22;3864;48.180;14.178;2023-11-22T01:18:37;6.10;99.90
7646;DHT22;3864;48.180;14.178;2023-11-22T01:21:05;6.10;99.90
7646;DHT22;3864;48.180;14.178;2023-11-22T01:23:33;6.10;99.90
7646;DHT22;3864;48.180;14.178;2023-11-22T01:26:01;6.00;99.90
7646;DHT22;3864;48.180;14.178;2023-11-22T01:28:29;5.90;99.90
7646;DHT22;3864;48.180;14.178;2023-11-22T01:31:00;5.80;99.90
7646;DHT22;3864;48.180;14.178;2023-11-22T01:33:27;5.80;99.90
7646;DHT22;3864;48.180;14.178;2023-11-22T01:35:54;5.70;99.90
7646;DHT22;3864;48.180;14.178;2023-11-22T01:38:23;5.70;99.90
7646;DHT22;3864;48.180;14.178;2023-11-22T01:40:51;5.60;99.90
7646;DHT22;3864;48.180;14.178;2023-11-22T01:43:20;5.60;99.90
7646;DHT22;3864;48.180;14.178;2023-11-22T01:45:49;5.60;99.90
7646;DHT22;3864;48.180;14.178;2023-11-22T01:48:17;5.50;99.90
7646;DHT22;3864;48.180;14.178;2023-11-22T01:50:44;5.40;99.90
7646;DHT22;3864;48.180;14.178;2023-11-22T01:53:12;5.30;99.90
7646;DHT22;3864;48.180;14.178;2023-11-22T01:55:44;5.30;99.90
7646;DHT22;3864;48.180;14.178;2023-11-22T01:58:12;5.20;99.90
7646;DHT22;3864;48.180;14.178;2023-11-22T02:00:43;5.10;99.90
7646;DHT22;3864;48.180;14.178;2023-11-22T02:03:12;5.10;99.90
7646;DHT22;3864;48.180;14.178;2023-11-22T02:05:39;5.10;99.90
7646;DHT22;3864;48.180;14.178;2023-11-22T02:08:08;5.00;99.90
7646;DHT22;3864;48.180;14.178;2023-11-22T02:10:35;5.00;99.90
7646;DHT22;3864;48.180;14.178;2023-11-22T02:13:05;4.90;99.90
7646;DHT22;3864;48.180;14.178;2023-11-22T02:15:33;4.90;99.90
7646;DHT22;3864;48.180;14.178;2023-11-22T02:18:00;4.80;99.90
7646;DHT22;3864;48.180;14.178;2023-11-22T02:20:28;4.80;99.90
7646;DHT22;3864;48.180;14.178;2023-11-22T02:22:55;4.70;99.90
7646;DHT22;3864;48.180;14.178;2023-11-22T02:25:24;4.70;99.90
7646;DHT22;3864;48.180;14.178;2023-11-22T02:27:51;4.70;99.90
7646;DHT22;3864;48.180;14.178;2023-11-22T02:30:18;4.70;99.90
7646;DHT22;3864;48.180;14.178;2023-11-22T02:32:45;4.60;99.90
7646;DHT22;3864;48.180;14.178;2023-11-22T02:35:12;4.50;99.90
7646;DHT22;3864;48.180;14.178;2023-11-22T02:37:41;4.50;99.90
7646;DHT22;3864;48.180;14.178;2023-11-22T02:40:16;4.50;99.90
7646;DHT22;3864;48.180;14.178;2023-11-22T02:42:46;4.40;99.90
7646;DHT22;3864;48.180;14.178;2023-11-22T02:45:13;4.40;99.90
7646;DHT22;3864;48.180;14.178;2023-11-22T02:47:41;4.40;99.90
7646;DHT22;3864;48.180;14.178;2023-11-22T02:50:11;4.30;99.90
7646;DHT22;3864;48.180;14.178;2023-11-22T02:52:39;4.40;99.90
7646;DHT22;3864;48.180;14.178;2023-11-22T02:55:07;4.30;99.90
7646;DHT22;3864;48.180;14.178;2023-11-22T02:57:35;4.30;99.90
7646;DHT22;3864;48.180;14.178;2023-11-22T03:00:05;4.30;99.90
7646;DHT22;3864;48.180;14.178;2023-11-22T03:02:33;4.30;99.90
7646;DHT22;3864;48.180;14.178;2023-11-22T03:05:00;4.30;99.90
7646;DHT22;3864;48.180;14.178;2023-11-22T03:07:27;4.30;99.90
7646;DHT22;3864;48.180;14.178;2023-11-22T03:09:54;4.20;99.90
7646;DHT22;3864;48.180;14.178;2023-11-22T03:12:21;4.20;99.90
7646;DHT22;3864;48.180;14.178;2023-11-22T03:14:48;4.30;99.90
7646;DHT22;3864;48.180;14.178;2023-11-22T03:17:17;4.20;99.90
7646;DHT22;3864;48.180;14.178;2023-11-22T03:19:44;4.20;99.90
7646;DHT22;3864;48.180;14.178;2023-11-22T03:22:12;4.20;99.90
7646;DHT22;3864;48.180;14.178;2023-11-22T03:24:39;4.20;99.90
7646;DHT22;3864;48.180;14.178;2023-11-22T03:27:06;4.20;99.90
7646;DHT22;3864;48.180;14.178;2023-11-22T03:29:33;4.20;99.90
7646;DHT22;3864;48.180;14.178;2023-11-22T03:32:00;4.20;99.90
7646;DHT22;3864;48.180;14.178;2023-11-22T03:34:29;4.10;99.90
7646;DHT22;3864;48.180;14.178;2023-11-22T03:36:56;4.20;99.90
7646;DHT22;3864;48.180;14.178;2023-11-22T03:39:25;4.10;99.90
7646;DHT22;3864;48.180;14.178;2023-11-22T03:41:52;4.10;99.90
7646;DHT22;3864;48.180;14.178;2023-11-22T03:44:19;4.10;99.90
7646;DHT22;3864;48.180;14.178;2023-11-22T03:46:46;4.10;99.90
7646;DHT22;3864;48.180;14.178;2023-11-22T03:49:14;4.10;99.90
7646;DHT22;3864;48.180;14.178;2023-11-22T03:51:43;4.10;99.90
7646;DHT22;3864;48.180;14.178;2023-11-22T03:54:10;4.00;99.90
7646;DHT22;3864;48.180;14.178;2023-11-22T03:56:38;4.00;99.90
7646;DHT22;3864;48.180;14.178;2023-11-22T03:59:05;4.00;99.90
7646;DHT22;3864;48.180;14.178;2023-11-22T04:01:32;4.00;99.90
7646;DHT22;3864;48.180;14.178;2023-11-22T04:03:59;4.00;99.90
7646;DHT22;3864;48.180;14.178;2023-11-22T04:06:27;4.00;99.90
7646;DHT22;3864;48.180;14.178;2023-11-22T04:08:56;4.00;99.90
7646;DHT22;3864;48.180;14.178;2023-11-22T04:11:24;4.00;99.90
7646;DHT22;3864;48.180;14.178;2023-11-22T04:13:53;4.00;99.90
7646;DHT22;3864;48.180;14.178;2023-11-22T04:16:21;3.90;99.90
7646;DHT22;3864;48.180;14.178;2023-11-22T04:18:48;3.90;99.90
7646;DHT22;3864;48.180;14.178;2023-11-22T04:21:15;3.90;99.90
7646;DHT22;3864;48.180;14.178;2023-11-22T04:23:42;4.00;99.90
7646;DHT22;3864;48.180;14.178;2023-11-22T04:26:11;4.00;99.90
7646;DHT22;3864;48.180;14.178;2023-11-22T04:28:38;4.00;99.90
7646;DHT22;3864;48.180;14.178;2023-11-22T04:31:05;3.90;99.90
7646;DHT22;3864;48.180;14.178;2023-11-22T04:33:34;3.90;99.90
7646;DHT22;3864;48.180;14.178;2023-11-22T04:36:02;3.90;99.90
7646;DHT22;3864;48.180;14.178;2023-11-22T04:38:29;3.90;99.90
7646;DHT22;3864;48.180;14.178;2023-11-22T04:40:56;3.90;99.90
7646;DHT22;3864;48.180;14.178;2023-11-22T04:43:24;3.90;99.90
7646;DHT22;3864;48.180;14.178;2023-11-22T04:45:52;3.90;99.90
7646;DHT22;3864;48.180;14.178;2023-11-22T04:48:19;3.90;99.90
7646;DHT22;3864;48.180;14.178;2023-11-22T04:50:46;3.90;99.90
7646;DHT22;3864;48.180;14.178;2023-11-22T04:53:13;3.90;99.90
7646;DHT22;3864;48.180;14.178;2023-11-22T04:55:40;3.90;99.90
7646;DHT22;3864;48.180;14.178;2023-11-22T04:58:07;3.90;99.90
7646;DHT22;3864;48.180;14.178;2023-11-22T05:00:35;3.90;99.90
7646;DHT22;3864;48.180;14.178;2023-11-22T05:03:02;3.90;99.90
7646;DHT22;3864;48.180;14.178;2023-11-22T05:05:29;3.90;99.90
7646;DHT22;3864;48.180;14.178;2023-11-22T05:07:56;3.80;99.90
7646;DHT22;3864;48.180;14.178;2023-11-22T05:10:23;3.80;99.90
7646;DHT22;3864;48.180;14.178;2023-11-22T05:12:50;3.80;99.90
7646;DHT22;3864;48.180;14.178;2023-11-22T05:15:17;3.80;99.90
7646;DHT22;3864;48.180;14.178;2023-11-22T05:17:45;3.80;99.90
7646;DHT22;3864;48.180;14.178;2023-11-22T05:20:12;3.80;99.90
7646;DHT22;3864;48.180;14.178;2023-11-22T05:22:41;3.80;99.90
7646;DHT22;3864;48.180;14.178;2023-11-22T05:25:08;3.70;99.90
7646;DHT22;3864;48.180;14.178;2023-11-22T05:27:36;3.80;99.90
7646;DHT22;3864;48.180;14.178;2023-11-22T05:30:03;3.80;99.90
7646;DHT22;3864;48.180;14.178;2023-11-22T05:32:31;3.70;99.90
7646;DHT22;3864;48.180;14.178;2023-11-22T05:35:00;3.60;99.90
7646;DHT22;3864;48.180;14.178;2023-11-22T05:37:28;3.60;99.90
7646;DHT22;3864;48.180;14.178;2023-11-22T05:39:55;3.60;99.90
7646;DHT22;3864;48.180;14.178;2023-11-22T05:42:23;3.60;99.90
7646;DHT22;3864;48.180;14.178;2023-11-22T05:44:50;3.60;99.90
7646;DHT22;3864;48.180;14.178;2023-11-22T05:47:18;3.60;99.90
7646;DHT22;3864;48.180;14.178;2023-11-22T05:49:45;3.60;99.90
7646;DHT22;3864;48.180;14.178;2023-11-22T05:52:14;3.60;99.90
7646;DHT22;3864;48.180;14.178;2023-11-22T05:54:41;3.50;99.90
7646;DHT22;3864;48.180;14.178;2023-11-22T05:57:07;3.50;99.90
7646;DHT22;3864;48.180;14.178;2023-11-22T05:59:35;3.50;99.90
7646;DHT22;3864;48.180;14.178;2023-11-22T06:02:02;3.30;99.90
7646;DHT22;3864;48.180;14.178;2023-11-22T06:04:29;3.30;99.90
7646;DHT22;3864;48.180;14.178;2023-11-22T06:06:57;3.30;99.90
7646;DHT22;3864;48.180;14.178;2023-11-22T06:09:25;3.40;99.90
7646;DHT22;3864;48.180;14.178;2023-11-22T06:11:52;3.40;99.90
7646;DHT22;3864;48.180;14.178;2023-11-22T06:14:20;3.40;99.90
7646;DHT22;3864;48.180;14.178;2023-11-22T06:16:47;3.30;99.90
7646;DHT22;3864;48.180;14.178;2023-11-22T06:19:14;3.40;99.90
7646;DHT22;3864;48.180;14.178;2023-11-22T06:21:41;3.40;99.90
7646;DHT22;3864;48.180;14.178;2023-11-22T06:24:08;3.40;99.90
7646;DHT22;3864;48.180;14.178;2023-11-22T06:26:38;3.40;99.90
7646;DHT22;3864;48.180;14.178;2023-11-22T06:29:06;3.40;99.90
7646;DHT22;3864;48.180;14.178;2023-11-22T06:31:34;3.30;99.90
7646;DHT22;3864;48.180;14.178;2023-11-22T06:34:03;3.30;99.90
7646;DHT22;3864;48.180;14.178;2023-11-22T06:36:30;3.30;99.90
7646;DHT22;3864;48.180;14.178;2023-11-22T06:38:56;3.30;99.90
7646;DHT22;3864;48.180;14.178;2023-11-22T06:41:24;3.40;99.90
7646;DHT22;3864;48.180;14.178;2023-11-22T06:43:53;3.40;99.90
7646;DHT22;3864;48.180;14.178;2023-11-22T06:46:20;3.30;99.90
7646;DHT22;3864;48.180;14.178;2023-11-22T06:48:48;3.30;99.90
7646;DHT22;3864;48.180;14.178;2023-11-22T06:51:16;3.30;99.90
7646;DHT22;3864;48.180;14.178;2023-11-22T06:53:43;3.20;99.90
7646;DHT22;3864;48.180;14.178;2023-11-22T06:56:10;3.20;99.90
7646;DHT22;3864;48.180;14.178;2023-11-22T06:58:37;3.20;99.90
7646;DHT22;3864;48.180;14.178;2023-11-22T07:01:06;3.10;99.90
7646;DHT22;3864;48.180;14.178;2023-11-22T07:03:36;3.10;99.90
7646;DHT22;3864;48.180;14.178;2023-11-22T07:06:03;3.10;99.90
7646;DHT22;3864;48.180;14.178;2023-11-22T07:08:31;3.10;99.90
7646;DHT22;3864;48.180;14.178;2023-11-22T07:10:58;3.10;99.90
7646;DHT22;3864;48.180;14.178;2023-11-22T07:13:25;3.00;99.90
7646;DHT22;3864;48.180;14.178;2023-11-22T07:15:52;3.00;99.90
7646;DHT22;3864;48.180;14.178;2023-11-22T07:18:21;3.00;99.90
7646;DHT22;3864;48.180;14.178;2023-11-22T07:20:50;3.00;99.90
7646;DHT22;3864;48.180;14.178;2023-11-22T07:23:19;2.90;99.90
7646;DHT22;3864;48.180;14.178;2023-11-22T07:25:48;2.80;99.90
7646;DHT22;3864;48.180;14.178;2023-11-22T07:28:15;2.80;99.90
7646;DHT22;3864;48.180;14.178;2023-11-22T07:30:42;2.80;99.90
7646;DHT22;3864;48.180;14.178;2023-11-22T07:33:08;2.80;99.90
7646;DHT22;3864;48.180;14.178;2023-11-22T07:35:38;2.80;99.90
7646;DHT22;3864;48.180;14.178;2023-11-22T07:38:05;2.80;99.90
7646;DHT22;3864;48.180;14.178;2023-11-22T07:40:34;2.80;99.90
7646;DHT22;3864;48.180;14.178;2023-11-22T07:43:01;2.80;99.90
7646;DHT22;3864;48.180;14.178;2023-11-22T07:45:30;2.80;99.90
7646;DHT22;3864;48.180;14.178;2023-11-22T07:47:57;2.80;99.90
7646;DHT22;3864;48.180;14.178;2023-11-22T07:50:25;2.80;99.90
7646;DHT22;3864;48.180;14.178;2023-11-22T07:52:54;2.80;99.90
7646;DHT22;3864;48.180;14.178;2023-11-22T07:55:21;2.80;99.90
7646;DHT22;3864;48.180;14.178;2023-11-22T07:57:49;2.80;99.90
7646;DHT22;3864;48.180;14.178;2023-11-22T08:00:17;2.80;99.90
7646;DHT22;3864;48.180;14.178;2023-11-22T08:02:45;2.80;99.90
7646;DHT22;3864;48.180;14.178;2023-11-22T08:05:12;2.80;99.90
7646;DHT22;3864;48.180;14.178;2023-11-22T08:07:41;2.90;99.90
7646;DHT22;3864;48.180;14.178;2023-11-22T08:10:11;2.90;99.90
7646;DHT22;3864;48.180;14.178;2023-11-22T08:12:45;2.90;99.90
7646;DHT22;3864;48.180;14.178;2023-11-22T08:15:13;2.90;99.90
7646;DHT22;3864;48.180;14.178;2023-11-22T08:17:41;2.90;99.90
7646;DHT22;3864;48.180;14.178;2023-11-22T08:20:09;2.90;99.90
7646;DHT22;3864;48.180;14.178;2023-11-22T08:22:39;2.90;99.90
7646;DHT22;3864;48.180;14.178;2023-11-22T08:25:07;2.90;99.90
7646;DHT22;3864;48.180;14.178;2023-11-22T08:27:40;3.00;99.90
7646;DHT22;3864;48.180;14.178;2023-11-22T08:30:08;3.00;99.90
7646;DHT22;3864;48.180;14.178;2023-11-22T08:32:40;3.10;99.90
7646;DHT22;3864;48.180;14.178;2023-11-22T08:35:08;3.10;99.90
7646;DHT22;3864;48.180;14.178;2023-11-22T08:37:35;3.10;99.90
7646;DHT22;3864;48.180;14.178;2023-11-22T08:40:06;3.20;99.90
7646;DHT22;3864;48.180;14.178;2023-11-22T08:42:33;3.20;99.90
7646;DHT22;3864;48.180;14.178;2023-11-22T08:45:02;3.20;99.90
7646;DHT22;3864;48.180;14.178;2023-11-22T08:47:30;3.20;99.90
7646;DHT22;3864;48.180;14.178;2023-11-22T08:49:57;3.30;99.90
7646;DHT22;3864;48.180;14.178;2023-11-22T08:52:24;3.30;99.90
7646;DHT22;3864;48.180;14.178;2023-11-22T08:54:51;3.30;99.90
7646;DHT22;3864;48.180;14.178;2023-11-22T08:57:18;3.30;99.90
7646;DHT22;3864;48.180;14.178;2023-11-22T08:59:46;3.40;99.90
7646;DHT22;3864;48.180;14.178;2023-11-22T09:02:15;3.50;99.90
7646;DHT22;3864;48.180;14.178;2023-11-22T09:04:43;3.50;99.90
7646;DHT22;3864;48.180;14.178;2023-11-22T09:07:10;3.60;99.90
7646;DHT22;3864;48.180;14.178;2023-11-22T09:09:40;3.70;99.90
7646;DHT22;3864;48.180;14.178;2023-11-22T09:12:08;3.60;99.90
7646;DHT22;3864;48.180;14.178;2023-11-22T09:14:39;3.50;99.90
7646;DHT22;3864;48.180;14.178;2023-11-22T09:17:07;3.60;99.90
7646;DHT22;3864;48.180;14.178;2023-11-22T09:19:36;3.60;99.90
7646;DHT22;3864;48.180;14.178;2023-11-22T09:22:04;3.50;99.90
7646;DHT22;3864;48.180;14.178;2023-11-22T09:24:33;3.50;99.90
7646;DHT22;3864;48.180;14.178;2023-11-22T09:27:02;3.50;99.90
7646;DHT22;3864;48.180;14.178;2023-11-22T09:29:31;3.40;99.90
7646;DHT22;3864;48.180;14.178;2023-11-22T09:32:00;3.30;99.90
7646;DHT22;3864;48.180;14.178;2023-11-22T09:34:28;3.30;99.90
7646;DHT22;3864;48.180;14.178;2023-11-22T09:36:57;3.40;99.90
7646;DHT22;3864;48.180;14.178;2023-11-22T09:39:24;3.40;99.90
7646;DHT22;3864;48.180;14.178;2023-11-22T09:41:51;3.40;99.90
7646;DHT22;3864;48.180;14.178;2023-11-22T09:44:18;3.40;99.90
7646;DHT22;3864;48.180;14.178;2023-11-22T09:46:48;3.40;99.90
7646;DHT22;3864;48.180;14.178;2023-11-22T09:49:24;3.30;99.90
7646;DHT22;3864;48.180;14.178;2023-11-22T09:51:54;3.30;99.90
7646;DHT22;3864;48.180;14.178;2023-11-22T09:54:26;3.40;99.90
7646;DHT22;3864;48.180;14.178;2023-11-22T09:56:58;3.40;99.90
7646;DHT22;3864;48.180;14.178;2023-11-22T09:59:28;3.50;99.90
7646;DHT22;3864;48.180;14.178;2023-11-22T10:01:56;3.50;99.90
7646;DHT22;3864;48.180;14.178;2023-11-22T10:04:25;3.40;99.90
7646;DHT22;3864;48.180;14.178;2023-11-22T10:06:56;3.40;99.90
7646;DHT22;3864;48.180;14.178;2023-11-22T10:09:26;3.30;99.90
7646;DHT22;3864;48.180;14.178;2023-11-22T10:11:58;3.30;99.90
7646;DHT22;3864;48.180;14.178;2023-11-22T10:14:25;3.20;99.90
7646;DHT22;3864;48.180;14.178;2023-11-22T10:16:57;3.10;99.90
7646;DHT22;3864;48.180;14.178;2023-11-22T10:19:25;3.10;99.90
7646;DHT22;3864;48.180;14.178;2023-11-22T10:22:02;3.10;99.90
7646;DHT22;3864;48.180;14.178;2023-11-22T10:24:32;3.10;99.90
7646;DHT22;3864;48.180;14.178;2023-11-22T10:27:00;3.20;99.90
7646;DHT22;3864;48.180;14.178;2023-11-22T10:29:27;3.20;99.90
7646;DHT22;3864;48.180;14.178;2023-11-22T10:31:54;3.20;99.90
7646;DHT22;3864;48.180;14.178;2023-11-22T10:34:23;3.20;99.90
7646;DHT22;3864;48.180;14.178;2023-11-22T10:36:51;3.20;99.90
7646;DHT22;3864;48.180;14.178;2023-11-22T10:39:21;3.20;99.90
7646;DHT22;3864;48.180;14.178;2023-11-22T10:41:50;3.20;99.90
7646;DHT22;3864;48.180;14.178;2023-11-22T10:44:20;3.20;99.90
7646;DHT22;3864;48.180;14.178;2023-11-22T10:46:47;3.20;99.90
7646;DHT22;3864;48.180;14.178;2023-11-22T10:49:16;3.30;99.90
7646;DHT22;3864;48.180;14.178;2023-11-22T10:51:47;3.40;99.90
7646;DHT22;3864;48.180;14.178;2023-11-22T10:54:19;3.50;99.90
7646;DHT22;3864;48.180;14.178;2023-11-22T10:56:46;3.50;99.90
7646;DHT22;3864;48.180;14.178;2023-11-22T10:59:22;3.40;99.90
7646;DHT22;3864;48.180;14.178;2023-11-22T11:01:49;3.40;99.90
7646;DHT22;3864;48.180;14.178;2023-11-22T11:04:24;3.60;99.90
7646;DHT22;3864;48.180;14.178;2023-11-22T11:06:55;3.70;99.90
7646;DHT22;3864;48.180;14.178;2023-11-22T11:09:28;3.80;99.90
7646;DHT22;3864;48.180;14.178;2023-11-22T11:11:58;3.90;99.90
7646;DHT22;3864;48.180;14.178;2023-11-22T11:14:27;4.00;99.90
7646;DHT22;3864;48.180;14.178;2023-11-22T11:16:55;4.00;99.90
7646;DHT22;3864;48.180;14.178;2023-11-22T11:19:24;3.80;99.90
7646;DHT22;3864;48.180;14.178;2023-11-22T11:21:54;3.90;99.90
7646;DHT22;3864;48.180;14.178;2023-11-22T11:24:23;3.80;99.90
7646;DHT22;3864;48.180;14.178;2023-11-22T11:26:50;3.70;99.90
7646;DHT22;3864;48.180;14.178;2023-11-22T11:29:33;3.70;99.90
7646;DHT22;3864;48.180;14.178;2023-11-22T11:32:02;3.80;99.90
7646;DHT22;3864;48.180;14.178;2023-11-22T11:34:30;3.80;99.90
7646;DHT22;3864;48.180;14.178;2023-11-22T11:36:59;3.70;99.90
7646;DHT22;3864;48.180;14.178;2023-11-22T11:39:27;3.80;99.90
7646;DHT22;3864;48.180;14.178;2023-11-22T11:42:09;3.80;99.90
7646;DHT22;3864;48.180;14.178;2023-11-22T11:45:03;3.80;99.90
7646;DHT22;3864;48.180;14.178;2023-11-22T11:47:32;4.00;99.90
7646;DHT22;3864;48.180;14.178;2023-11-22T11:49:59;4.00;99.90
7646;DHT22;3864;48.180;14.178;2023-11-22T11:52:27;3.90;99.90
7646;DHT22;3864;48.180;14.178;2023-11-22T11:54:56;3.80;99.90
7646;DHT22;3864;48.180;14.178;2023-11-22T11:57:24;3.80;99.90
7646;DHT22;3864;48.180;14.178;2023-11-22T11:59:52;3.90;99.90
7646;DHT22;3864;48.180;14.178;2023-11-22T12:02:21;3.80;99.90
7646;DHT22;3864;48.180;14.178;2023-11-22T12:04:49;3.80;99.90
7646;DHT22;3864;48.180;14.178;2023-11-22T12:07:15;3.80;99.90
7646;DHT22;3864;48.180;14.178;2023-11-22T12:09:43;3.80;99.90
7646;DHT22;3864;48.180;14.178;2023-11-22T12:12:12;3.90;99.90
7646;DHT22;3864;48.180;14.178;2023-11-22T12:14:39;3.90;99.90
7646;DHT22;3864;48.180;14.178;2023-11-22T12:17:08;3.80;99.90
7646;DHT22;3864;48.180;14.178;2023-11-22T12:19:35;4.00;99.90
7646;DHT22;3864;48.180;14.178;2023-11-22T12:22:05;4.10;99.90
7646;DHT22;3864;48.180;14.178;2023-11-22T12:24:33;4.20;99.90
7646;DHT22;3864;48.180;14.178;2023-11-22T12:27:00;4.10;99.90
7646;DHT22;3864;48.180;14.178;2023-11-22T12:29:28;4.10;99.90
7646;DHT22;3864;48.180;14.178;2023-11-22T12:31:55;4.10;99.90
7646;DHT22;3864;48.180;14.178;2023-11-22T12:34:24;4.20;99.90
7646;DHT22;3864;48.180;14.178;2023-11-22T12:36:51;4.20;99.90
7646;DHT22;3864;48.180;14.178;2023-11-22T12:39:20;4.20;99.90
7646;DHT22;3864;48.180;14.178;2023-11-22T12:41:50;4.30;99.90
7646;DHT22;3864;48.180;14.178;2023-11-22T12:44:17;4.30;99.90
7646;DHT22;3864;48.180;14.178;2023-11-22T12:46:46;4.20;99.90
7646;DHT22;3864;48.180;14.178;2023-11-22T12:49:14;4.30;99.90
7646;DHT22;3864;48.180;14.178;2023-11-22T12:51:48;4.40;99.90
7646;DHT22;3864;48.180;14.178;2023-11-22T12:54:16;4.40;99.90
7646;DHT22;3864;48.180;14.178;2023-11-22T12:56:45;4.60;99.90
7646;DHT22;3864;48.180;14.178;2023-11-22T12:59:16;4.70;99.90
7646;DHT22;3864;48.180;14.178;2023-11-22T13:01:45;4.70;99.90
7646;DHT22;3864;48.180;14.178;2023-11-22T13:04:12;4.80;99.90
7646;DHT22;3864;48.180;14.178;2023-11-22T13:06:40;4.80;99.90
7646;DHT22;3864;48.180;14.178;2023-11-22T13:09:09;4.80;99.90
7646;DHT22;3864;48.180;14.178;2023-11-22T13:11:41;4.70;99.90
7646;DHT22;3864;48.180;14.178;2023-11-22T13:14:09;4.60;99.90
7646;DHT22;3864;48.180;14.178;2023-11-22T13:16:39;4.50;99.90
7646;DHT22;3864;48.180;14.178;2023-11-22T13:19:07;4.40;99.90
7646;DHT22;3864;48.180;14.178;2023-11-22T13:21:34;4.50;99.90
7646;DHT22;3864;48.180;14.178;2023-11-22T13:24:02;4.50;99.90
7646;DHT22;3864;48.180;14.178;2023-11-22T13:26:31;4.50;99.90
7646;DHT22;3864;48.180;14.178;2023-11-22T13:28:59;4.50;99.90
7646;DHT22;3864;48.180;14.178;2023-11-22T13:31:26;4.50;99.90
7646;DHT22;3864;48.180;14.178;2023-11-22T13:33:54;4.40;99.90
7646;DHT22;3864;48.180;14.178;2023-11-22T13:36:21;4.20;99.90
7646;DHT22;3864;48.180;14.178;2023-11-22T13:38:49;4.20;99.90
7646;DHT22;3864;48.180;14.178;2023-11-22T13:41:15;4.30;99.90
7646;DHT22;3864;48.180;14.178;2023-11-22T13:43:44;4.20;99.90
7646;DHT22;3864;48.180;14.178;2023-11-22T13:46:12;4.00;99.90
7646;DHT22;3864;48.180;14.178;2023-11-22T13:48:40;4.10;99.90
7646;DHT22;3864;48.180;14.178;2023-11-22T13:51:08;4.10;99.90
7646;DHT22;3864;48.180;14.178;2023-11-22T13:53:36;4.00;99.90
7646;DHT22;3864;48.180;14.178;2023-11-22T13:56:09;4.00;99.90
7646;DHT22;3864;48.180;14.178;2023-11-22T13:58:37;4.10;99.90
7646;DHT22;3864;48.180;14.178;2023-11-22T14:01:06;4.20;99.90
7646;DHT22;3864;48.180;14.178;2023-11-22T14:03:37;4.30;99.90
7646;DHT22;3864;48.180;14.178;2023-11-22T14:06:05;4.30;99.90
7646;DHT22;3864;48.180;14.178;2023-11-22T14:08:32;4.40;99.90
7646;DHT22;3864;48.180;14.178;2023-11-22T14:10:59;4.40;99.90
7646;DHT22;3864;48.180;14.178;2023-11-22T14:13:26;4.40;99.90
7646;DHT22;3864;48.180;14.178;2023-11-22T14:15:53;4.50;99.90
7646;DHT22;3864;48.180;14.178;2023-11-22T14:18:22;4.50;99.90
7646;DHT22;3864;48.180;14.178;2023-11-22T14:20:50;4.50;99.90
7646;DHT22;3864;48.180;14.178;2023-11-22T14:23:17;4.50;99.90
7646;DHT22;3864;48.180;14.178;2023-11-22T14:25:44;4.40;99.90
7646;DHT22;3864;48.180;14.178;2023-11-22T14:28:21;4.30;99.90
7646;DHT22;3864;48.180;14.178;2023-11-22T14:30:48;4.30;99.90
7646;DHT22;3864;48.180;14.178;2023-11-22T14:33:20;4.10;99.90
7646;DHT22;3864;48.180;14.178;2023-11-22T14:35:48;4.00;99.90
7646;DHT22;3864;48.180;14.178;2023-11-22T14:38:15;4.00;99.90
7646;DHT22;3864;48.180;14.178;2023-11-22T14:40:43;3.90;99.90
7646;DHT22;3864;48.180;14.178;2023-11-22T14:43:11;3.90;99.90
7646;DHT22;3864;48.180;14.178;2023-11-22T14:45:39;3.80;99.90
7646;DHT22;3864;48.180;14.178;2023-11-22T14:48:07;3.70;99.90
7646;DHT22;3864;48.180;14.178;2023-11-22T14:50:36;3.60;99.90
7646;DHT22;3864;48.180;14.178;2023-11-22T14:53:04;3.60;99.90
7646;DHT22;3864;48.180;14.178;2023-11-22T14:55:33;3.70;99.90
7646;DHT22;3864;48.180;14.178;2023-11-22T14:58:05;3.60;99.90
7646;DHT22;3864;48.180;14.178;2023-11-22T15:00:32;3.60;99.90
7646;DHT22;3864;48.180;14.178;2023-11-22T15:02:59;3.60;99.90
7646;DHT22;3864;48.180;14.178;2023-11-22T15:05:26;3.50;99.90
7646;DHT22;3864;48.180;14.178;2023-11-22T15:07:52;3.60;99.90
7646;DHT22;3864;48.180;14.178;2023-11-22T15:10:22;3.50;99.90
7646;DHT22;3864;48.180;14.178;2023-11-22T15:12:50;3.50;99.90
7646;DHT22;3864;48.180;14.178;2023-11-22T15:15:16;3.40;99.90
7646;DHT22;3864;48.180;14.178;2023-11-22T15:17:44;3.40;99.90
7646;DHT22;3864;48.180;14.178;2023-11-22T15:20:11;3.40;99.90
7646;DHT22;3864;48.180;14.178;2023-11-22T15:22:41;3.40;99.90
7646;DHT22;3864;48.180;14.178;2023-11-22T15:25:09;3.40;99.90
7646;DHT22;3864;48.180;14.178;2023-11-22T15:27:37;3.40;99.90
7646;DHT22;3864;48.180;14.178;2023-11-22T15:30:06;3.40;99.90
7646;DHT22;3864;48.180;14.178;2023-11-22T15:32:34;3.40;99.90
7646;DHT22;3864;48.180;14.178;2023-11-22T15:35:02;3.30;99.90
7646;DHT22;3864;48.180;14.178;2023-11-22T15:37:30;3.30;99.90
7646;DHT22;3864;48.180;14.178;2023-11-22T15:39:57;3.30;99.90
7646;DHT22;3864;48.180;14.178;2023-11-22T15:42:25;3.30;99.90
7646;DHT22;3864;48.180;14.178;2023-11-22T15:44:56;3.30;99.90
7646;DHT22;3864;48.180;14.178;2023-11-22T15:47:24;3.20;99.90
7646;DHT22;3864;48.180;14.178;2023-11-22T15:49:50;3.20;99.90
7646;DHT22;3864;48.180;14.178;2023-11-22T15:52:19;3.20;99.90
7646;DHT22;3864;48.180;14.178;2023-11-22T15:54:46;3.20;99.90
7646;DHT22;3864;48.180;14.178;2023-11-22T15:57:14;3.30;99.90
7646;DHT22;3864;48.180;14.178;2023-11-22T15:59:41;3.30;99.90
7646;DHT22;3864;48.180;14.178;2023-11-22T16:02:10;3.20;99.90
7646;DHT22;3864;48.180;14.178;2023-11-22T16:04:37;3.20;99.90
7646;DHT22;3864;48.180;14.178;2023-11-22T16:07:04;3.20;99.90
7646;DHT22;3864;48.180;14.178;2023-11-22T16:09:31;3.20;99.90